Pleasantdale, New York
Current Conditions -  °F | °C
As of 11:51 PM on Wednesday 22 Oct 2014 (Local Time) from KALB Reporting Station
Overcast Overcast  
Wind Chill: 52°   Ceiling: 2800
Heat Index: 52°   Visibility: 10mi
Dew Point: 43°   Wind: 16mph
Humidity: 71%   Direction: 10°N
Pressure: 29.92"   Gusts: 28mph
Location:  42.8029°N, 73.6379°W
Report Text: KALB 230351Z 01014G24KT 10SM OVC028 11/06 A2992 RMK AO2 RAE15 SLP130 PRESENT WX VCSH P0000 T01110061
Loading
Personal Weather Stations






























Interactive Weather Map
Tropical Storm Tracking
New forecast layout! Learn more

10-Day Weather Forecast

Advertisements
Track Severe Weather on mobile